createdAt,value
2023-06-17T00:02:10.364Z,16.00
2023-06-17T00:04:38.372Z,16.00
2023-06-17T00:07:06.919Z,15.90
2023-06-17T00:09:36.259Z,15.90
2023-06-17T00:12:04.527Z,15.90
2023-06-17T00:14:33.763Z,15.80
2023-06-17T00:17:01.944Z,15.80
2023-06-17T00:19:30.161Z,15.80
2023-06-17T00:21:58.223Z,15.80
2023-06-17T00:24:26.275Z,15.70
2023-06-17T00:26:55.698Z,15.70
2023-06-17T00:29:24.464Z,15.70
2023-06-17T00:31:52.515Z,15.70
2023-06-17T00:34:20.546Z,15.70
2023-06-17T00:36:48.535Z,15.70
2023-06-17T00:39:16.627Z,15.60
2023-06-17T00:41:44.631Z,15.70
2023-06-17T00:44:13.986Z,15.60
2023-06-17T00:46:43.633Z,15.60
2023-06-17T00:49:12.480Z,15.50
2023-06-17T00:51:41.116Z,15.50
2023-06-17T00:54:09.983Z,15.50
2023-06-17T00:56:39.547Z,15.40
2023-06-17T00:59:09.428Z,15.40
2023-06-17T01:01:38.813Z,15.40
2023-06-17T01:04:07.939Z,15.30
2023-06-17T01:06:43.893Z,15.30
2023-06-17T01:09:17.040Z,15.30
2023-06-17T01:11:46.706Z,15.30
2023-06-17T01:14:15.656Z,15.20
2023-06-17T01:16:46.073Z,15.30
2023-06-17T01:19:20.411Z,15.20
2023-06-17T01:21:50.640Z,15.20
2023-06-17T01:24:28.491Z,15.20
2023-06-17T01:26:58.278Z,15.20
2023-06-17T01:29:27.489Z,15.10
2023-06-17T01:31:58.889Z,15.10
2023-06-17T01:34:34.179Z,15.10
2023-06-17T01:37:05.584Z,15.10
2023-06-17T01:39:37.875Z,15.00
2023-06-17T01:42:10.587Z,15.00
2023-06-17T01:44:40.957Z,15.00
2023-06-17T01:47:10.913Z,15.00
2023-06-17T01:49:39.412Z,14.90
2023-06-17T01:52:10.606Z,14.90
2023-06-17T01:54:40.064Z,14.90
2023-06-17T01:57:08.950Z,14.90
2023-06-17T01:59:36.952Z,14.90
2023-06-17T02:02:05.210Z,14.90
2023-06-17T02:04:33.172Z,14.90
2023-06-17T02:07:01.208Z,14.80
2023-06-17T02:09:29.281Z,14.80
2023-06-17T02:11:59.627Z,14.80
2023-06-17T02:14:27.640Z,14.80
2023-06-17T02:16:57.191Z,14.80
2023-06-17T02:19:25.169Z,14.80
2023-06-17T02:21:53.215Z,14.70
2023-06-17T02:24:22.341Z,14.80
2023-06-17T02:26:50.864Z,14.70
2023-06-17T02:29:20.268Z,14.70
2023-06-17T02:31:48.348Z,14.70
2023-06-17T02:34:16.714Z,14.70
2023-06-17T02:36:44.711Z,14.70
2023-06-17T02:39:13.071Z,14.70
2023-06-17T02:41:41.292Z,14.60
2023-06-17T02:44:09.372Z,14.60
2023-06-17T02:46:38.786Z,14.50
2023-06-17T02:49:06.813Z,14.50
2023-06-17T02:51:35.281Z,14.50
2023-06-17T02:54:03.310Z,14.50
2023-06-17T02:56:31.309Z,14.50
2023-06-17T02:58:59.541Z,14.50
2023-06-17T03:01:27.629Z,14.50
2023-06-17T03:03:57.128Z,14.50
2023-06-17T03:06:25.126Z,14.50
2023-06-17T03:08:53.117Z,14.40
2023-06-17T03:11:21.132Z,14.40
2023-06-17T03:13:49.162Z,14.40
2023-06-17T03:16:18.308Z,14.40
2023-06-17T03:18:46.420Z,14.40
2023-06-17T03:21:16.101Z,14.50
2023-06-17T03:23:44.206Z,14.50
2023-06-17T03:26:12.181Z,14.50
2023-06-17T03:28:40.179Z,14.50
2023-06-17T03:31:08.264Z,14.50
2023-06-17T03:33:36.276Z,14.60
2023-06-17T03:36:04.292Z,14.70
2023-06-17T03:38:33.682Z,14.70
2023-06-17T03:41:01.700Z,14.90
2023-06-17T03:43:29.748Z,14.90
2023-06-17T03:45:57.728Z,15.00
2023-06-17T03:48:25.893Z,15.00
2023-06-17T03:50:53.897Z,15.00
2023-06-17T03:53:21.930Z,14.90
2023-06-17T03:55:51.352Z,14.90
2023-06-17T03:58:19.425Z,14.90
2023-06-17T04:00:48.963Z,14.90
2023-06-17T04:03:17.447Z,14.90
2023-06-17T04:05:45.884Z,14.90
2023-06-17T04:08:13.902Z,15.00
2023-06-17T04:10:42.396Z,15.00
2023-06-17T04:13:12.131Z,15.10
2023-06-17T04:15:40.110Z,15.20
2023-06-17T04:18:08.180Z,15.20
2023-06-17T04:20:36.899Z,15.30
2023-06-17T04:23:05.155Z,15.30
2023-06-17T04:25:37.857Z,15.30
2023-06-17T04:28:08.239Z,15.40
2023-06-17T04:30:38.983Z,15.40
2023-06-17T04:33:07.602Z,15.40
2023-06-17T04:35:36.535Z,15.50
2023-06-17T04:38:04.577Z,15.60
2023-06-17T04:40:33.286Z,15.60
2023-06-17T04:43:02.301Z,15.60
2023-06-17T04:45:30.573Z,15.60
2023-06-17T04:48:00.046Z,15.70
2023-06-17T04:50:30.494Z,15.80
2023-06-17T04:53:04.789Z,15.80
2023-06-17T04:55:36.494Z,15.90
2023-06-17T04:58:05.714Z,16.00
2023-06-17T05:00:33.859Z,15.90
2023-06-17T05:03:03.331Z,16.10
2023-06-17T05:05:31.379Z,16.20
2023-06-17T05:07:59.339Z,16.20
2023-06-17T05:10:27.368Z,16.30
2023-06-17T05:12:55.593Z,16.30
2023-06-17T05:15:23.585Z,16.40
2023-06-17T05:17:51.937Z,16.50
2023-06-17T05:20:21.618Z,16.60
2023-06-17T05:22:49.741Z,16.70
2023-06-17T05:25:17.772Z,16.90
2023-06-17T05:27:45.771Z,17.10
2023-06-17T05:30:14.058Z,17.30
2023-06-17T05:32:42.100Z,17.20
2023-06-17T05:35:10.428Z,17.30
2023-06-17T05:37:39.809Z,17.30
2023-06-17T05:40:08.880Z,17.40
2023-06-17T05:42:36.864Z,17.50
2023-06-17T05:45:05.203Z,17.50
2023-06-17T05:47:33.344Z,17.60
2023-06-17T05:50:01.416Z,17.70
2023-06-17T05:52:29.445Z,17.80
2023-06-17T05:54:58.769Z,17.90
2023-06-17T05:57:26.848Z,17.90
2023-06-17T05:59:54.869Z,17.90
2023-06-17T06:02:22.969Z,18.10
2023-06-17T06:04:51.052Z,18.30
2023-06-17T06:07:19.072Z,18.60
2023-06-17T06:09:47.559Z,18.70
2023-06-17T06:12:17.172Z,18.60
2023-06-17T06:14:45.556Z,18.60
2023-06-17T06:17:13.553Z,18.50
2023-06-17T06:19:41.588Z,18.40
2023-06-17T06:22:09.613Z,18.40
2023-06-17T06:24:37.706Z,18.60
2023-06-17T06:27:06.291Z,18.70
2023-06-17T06:29:35.764Z,18.80
2023-06-17T06:32:03.942Z,18.80
2023-06-17T06:34:31.997Z,18.70
2023-06-17T06:36:59.996Z,18.80
2023-06-17T06:39:28.387Z,18.70
2023-06-17T06:41:57.261Z,18.70
2023-06-17T06:44:25.244Z,18.70
2023-06-17T06:46:56.563Z,18.70
2023-06-17T06:49:24.640Z,18.80
2023-06-17T06:51:52.630Z,18.90
2023-06-17T06:54:20.624Z,18.90
2023-06-17T06:56:48.616Z,19.00
2023-06-17T06:59:17.283Z,19.00
2023-06-17T07:01:45.332Z,19.00
2023-06-17T07:04:14.807Z,19.10
2023-06-17T07:06:42.849Z,19.30
2023-06-17T07:09:10.830Z,19.60
2023-06-17T07:11:38.876Z,20.00
2023-06-17T07:14:07.084Z,20.10
2023-06-17T07:16:35.198Z,20.30
2023-06-17T07:19:03.203Z,20.30
2023-06-17T07:21:32.581Z,20.50
2023-06-17T07:24:00.711Z,20.80
2023-06-17T07:26:28.757Z,20.90
2023-06-17T07:28:56.814Z,21.00
2023-06-17T07:31:25.374Z,21.20
2023-06-17T07:33:59.548Z,21.10
2023-06-17T07:36:28.246Z,21.40
2023-06-17T07:38:58.405Z,21.70
2023-06-17T07:41:26.432Z,23.00
2023-06-17T07:43:54.418Z,24.10
2023-06-17T07:46:22.464Z,25.20
2023-06-17T07:48:50.469Z,26.90
2023-06-17T07:51:18.496Z,28.60
2023-06-17T07:53:46.559Z,30.70
2023-06-17T07:56:15.981Z,32.10
2023-06-17T07:58:45.175Z,32.50
2023-06-17T08:01:13.207Z,31.70
2023-06-17T08:03:41.259Z,31.50
2023-06-17T08:06:09.420Z,31.00
2023-06-17T08:08:37.437Z,29.90
2023-06-17T08:11:05.413Z,28.80
2023-06-17T08:13:34.790Z,27.80
2023-06-17T08:16:03.066Z,27.30
2023-06-17T08:18:31.148Z,27.40
2023-06-17T08:20:59.188Z,28.70
2023-06-17T08:23:27.722Z,30.10
2023-06-17T08:25:55.700Z,30.30
2023-06-17T08:28:23.747Z,29.70
2023-06-17T08:30:53.288Z,29.30
2023-06-17T08:33:21.462Z,29.20
2023-06-17T08:35:49.458Z,30.90
2023-06-17T08:38:18.401Z,33.10
2023-06-17T08:40:47.380Z,34.30
2023-06-17T08:43:19.753Z,35.80
2023-06-17T08:45:50.756Z,37.70
2023-06-17T08:48:20.551Z,39.10
2023-06-17T08:50:50.297Z,39.60
2023-06-17T08:53:19.002Z,39.90
2023-06-17T08:55:47.823Z,40.60
2023-06-17T08:58:15.871Z,40.10
2023-06-17T09:00:43.896Z,39.00
2023-06-17T09:03:13.090Z,36.20
2023-06-17T09:05:42.446Z,34.60
2023-06-17T09:08:10.612Z,32.40
2023-06-17T09:10:45.827Z,32.70
2023-06-17T09:13:13.914Z,31.90
2023-06-17T09:15:43.606Z,31.20
2023-06-17T09:18:11.743Z,31.50
2023-06-17T09:20:39.781Z,33.70
2023-06-17T09:23:18.586Z,36.80
2023-06-17T09:25:46.720Z,39.80
2023-06-17T09:28:17.213Z,41.60
2023-06-17T09:30:45.703Z,42.40
2023-06-17T09:33:20.508Z,43.80
2023-06-17T09:35:49.120Z,44.60
2023-06-17T09:38:19.545Z,41.50
2023-06-17T09:40:50.565Z,41.20
2023-06-17T09:45:51.367Z,44.60
2023-06-17T09:48:21.782Z,45.30
2023-06-17T09:50:56.968Z,45.90
2023-06-17T09:53:28.816Z,43.60
2023-06-17T09:55:58.468Z,42.70
2023-06-17T09:58:30.411Z,42.90
2023-06-17T10:01:01.558Z,42.60
2023-06-17T10:03:30.145Z,39.90
2023-06-17T10:06:04.236Z,39.70
2023-06-17T10:08:37.068Z,40.50
2023-06-17T10:11:05.265Z,42.00
2023-06-17T10:13:37.373Z,43.30
2023-06-17T10:16:06.960Z,43.40
2023-06-17T10:18:38.244Z,41.00
2023-06-17T10:21:08.401Z,37.70
2023-06-17T10:23:38.920Z,37.50
2023-06-17T10:26:08.065Z,39.30
2023-06-17T10:28:46.903Z,40.80
2023-06-17T10:31:31.055Z,40.40
2023-06-17T10:34:02.868Z,37.30
2023-06-17T10:36:30.938Z,35.00
2023-06-17T10:39:05.199Z,32.20
2023-06-17T10:41:56.969Z,30.80
2023-06-17T10:44:43.377Z,29.30
2023-06-17T10:47:20.983Z,28.00
2023-06-17T10:49:50.370Z,27.60
2023-06-17T10:52:18.965Z,27.50
2023-06-17T10:54:53.242Z,27.30
2023-06-17T10:57:34.861Z,27.20
2023-06-17T11:00:08.207Z,27.00
2023-06-17T11:02:37.341Z,26.70
2023-06-17T11:05:06.564Z,26.40
2023-06-17T11:07:34.998Z,26.30
2023-06-17T11:10:04.867Z,26.40
2023-06-17T11:12:35.470Z,26.70
2023-06-17T11:15:05.518Z,26.90
2023-06-17T11:17:33.633Z,27.00
2023-06-17T11:20:01.734Z,26.60
2023-06-17T11:22:30.063Z,26.50
2023-06-17T11:24:59.410Z,26.50
2023-06-17T11:27:30.286Z,26.60
2023-06-17T11:29:58.474Z,26.30
2023-06-17T11:32:26.845Z,26.00
2023-06-17T11:34:54.956Z,26.00
2023-06-17T11:37:23.687Z,25.70
2023-06-17T11:39:51.670Z,25.40
2023-06-17T11:42:19.706Z,25.40
2023-06-17T11:44:50.532Z,25.30
2023-06-17T11:47:18.576Z,25.00
2023-06-17T11:49:46.639Z,24.90
2023-06-17T11:52:15.262Z,25.10
2023-06-17T11:54:49.842Z,25.40
2023-06-17T11:57:22.536Z,25.70
2023-06-17T11:59:52.885Z,25.80
2023-06-17T12:02:21.579Z,25.90
2023-06-17T12:04:50.093Z,26.00
2023-06-17T12:07:18.109Z,25.80
2023-06-17T12:09:54.359Z,25.80
2023-06-17T12:12:33.520Z,26.00
2023-06-17T12:15:15.017Z,26.40
2023-06-17T12:17:46.090Z,26.60
2023-06-17T12:20:16.362Z,26.50
2023-06-17T12:22:44.906Z,26.60
2023-06-17T12:25:13.547Z,26.60
2023-06-17T12:27:43.603Z,26.60
2023-06-17T12:30:15.198Z,26.60
2023-06-17T12:32:44.169Z,26.50
2023-06-17T12:35:18.175Z,26.40
2023-06-17T12:37:48.025Z,26.70
2023-06-17T12:40:16.048Z,26.70
2023-06-17T12:42:44.376Z,26.70
2023-06-17T12:45:14.294Z,26.50
2023-06-17T12:47:43.125Z,26.40
2023-06-17T12:50:12.403Z,26.50
2023-06-17T12:52:40.627Z,26.30
2023-06-17T12:55:10.002Z,26.20
2023-06-17T12:57:38.064Z,26.20
2023-06-17T13:00:07.555Z,26.40
2023-06-17T13:02:37.719Z,26.60
2023-06-17T13:05:06.479Z,26.60
2023-06-17T13:07:34.847Z,26.80
2023-06-17T13:10:02.995Z,26.90
2023-06-17T13:12:31.040Z,27.00
2023-06-17T13:14:59.064Z,26.90
2023-06-17T13:17:27.127Z,26.90
2023-06-17T13:19:56.526Z,27.00
2023-06-17T13:22:25.839Z,27.00
2023-06-17T13:24:54.342Z,26.90
2023-06-17T13:27:22.414Z,27.00
2023-06-17T13:29:50.385Z,26.80
2023-06-17T13:32:19.909Z,26.90
2023-06-17T13:34:48.014Z,26.90
2023-06-17T13:37:17.485Z,26.60
2023-06-17T13:39:46.055Z,26.40
2023-06-17T13:42:14.076Z,26.20
2023-06-17T13:44:45.645Z,26.10
2023-06-17T13:47:15.843Z,26.10
2023-06-17T13:49:44.375Z,26.20
2023-06-17T13:52:14.054Z,26.00
2023-06-17T13:54:43.435Z,26.20
2023-06-17T13:57:12.901Z,26.30
2023-06-17T13:59:42.354Z,26.20
2023-06-17T14:02:10.806Z,26.10
2023-06-17T14:04:38.926Z,25.80
2023-06-17T14:07:07.622Z,25.50
2023-06-17T14:09:35.618Z,25.30
2023-06-17T14:12:05.270Z,25.20
2023-06-17T14:14:33.295Z,25.00
2023-06-17T14:17:01.348Z,25.00
2023-06-17T14:19:30.367Z,24.90
2023-06-17T14:22:01.894Z,25.00
2023-06-17T14:24:29.986Z,25.20
2023-06-17T14:27:11.088Z,25.20
2023-06-17T14:29:39.368Z,25.50
2023-06-17T14:32:08.116Z,25.70
2023-06-17T14:34:36.311Z,25.80
2023-06-17T14:37:04.452Z,25.80
2023-06-17T14:39:33.207Z,25.60
2023-06-17T14:42:01.352Z,25.70
2023-06-17T14:44:30.757Z,25.90
2023-06-17T14:46:58.827Z,25.90
2023-06-17T14:49:26.873Z,25.80
2023-06-17T14:51:54.879Z,25.80
2023-06-17T14:54:22.873Z,25.80
2023-06-17T14:56:50.859Z,25.80
2023-06-17T14:59:18.961Z,25.70
2023-06-17T15:01:48.336Z,25.60
2023-06-17T15:04:16.476Z,25.50
2023-06-17T15:06:44.517Z,25.00
2023-06-17T15:09:26.510Z,24.60
2023-06-17T15:11:56.388Z,24.40
2023-06-17T15:14:25.122Z,24.00
2023-06-17T15:16:54.568Z,23.70
2023-06-17T15:19:22.845Z,23.50
2023-06-17T15:21:50.864Z,23.40
2023-06-17T15:24:19.229Z,23.30
2023-06-17T15:26:48.198Z,23.30
2023-06-17T15:29:16.752Z,23.40
2023-06-17T15:31:45.363Z,23.50
2023-06-17T15:34:14.845Z,23.50
2023-06-17T15:36:42.977Z,23.50
2023-06-17T15:39:19.334Z,23.50
2023-06-17T15:41:47.740Z,23.40
2023-06-17T15:44:16.710Z,23.40
2023-06-17T15:46:45.242Z,23.40
2023-06-17T15:49:14.713Z,23.40
2023-06-17T15:51:42.703Z,23.40
2023-06-17T15:54:11.456Z,23.30
2023-06-17T15:56:40.519Z,23.30
2023-06-17T15:59:08.574Z,23.10
2023-06-17T16:01:36.569Z,23.20
2023-06-17T16:04:34.765Z,23.10
2023-06-17T16:07:03.934Z,23.00
2023-06-17T16:09:33.405Z,22.90
2023-06-17T16:12:01.826Z,22.90
2023-06-17T16:14:31.457Z,22.90
2023-06-17T16:16:59.492Z,22.90
2023-06-17T16:19:27.622Z,22.90
2023-06-17T16:21:57.055Z,22.90
2023-06-17T16:24:25.139Z,23.10
2023-06-17T16:26:53.185Z,23.10
2023-06-17T16:29:21.581Z,23.00
2023-06-17T16:31:49.941Z,23.10
2023-06-17T16:34:18.212Z,23.20
2023-06-17T16:36:46.384Z,23.30
2023-06-17T16:39:16.125Z,23.50
2023-06-17T16:41:44.124Z,23.70
2023-06-17T16:44:12.170Z,24.20
2023-06-17T16:46:41.306Z,24.50
2023-06-17T16:49:09.284Z,24.50
2023-06-17T16:51:37.436Z,24.40
2023-06-17T16:54:06.558Z,24.20
2023-06-17T16:56:36.242Z,24.00
2023-06-17T16:59:04.464Z,23.90
2023-06-17T17:01:32.776Z,23.90
2023-06-17T17:04:02.252Z,23.80
2023-06-17T17:06:30.708Z,23.70
2023-06-17T17:08:58.723Z,23.60
2023-06-17T17:11:26.779Z,23.40
2023-06-17T17:13:56.353Z,23.30
2023-06-17T17:16:24.543Z,23.20
2023-06-17T17:18:52.590Z,23.00
2023-06-17T17:21:20.756Z,23.00
2023-06-17T17:23:48.893Z,22.90
2023-06-17T17:26:17.003Z,22.90
2023-06-17T17:28:44.996Z,22.90
2023-06-17T17:31:14.422Z,22.90
2023-06-17T17:33:44.407Z,22.90
2023-06-17T17:36:13.934Z,22.80
2023-06-17T17:38:42.537Z,22.80
2023-06-17T17:41:10.648Z,22.80
2023-06-17T17:43:39.372Z,22.70
2023-06-17T17:46:10.339Z,22.60
2023-06-17T17:48:40.139Z,22.60
2023-06-17T17:51:08.138Z,22.60
2023-06-17T17:53:37.296Z,22.50
2023-06-17T17:56:05.681Z,22.50
2023-06-17T17:58:33.720Z,22.50
2023-06-17T18:01:03.140Z,22.40
2023-06-17T18:03:31.453Z,22.30
2023-06-17T18:06:01.017Z,22.30
2023-06-17T18:08:29.031Z,22.20
2023-06-17T18:10:57.071Z,22.20
2023-06-17T18:13:25.225Z,22.20
2023-06-17T18:15:53.289Z,22.00
2023-06-17T18:18:21.428Z,21.90
2023-06-17T18:20:49.409Z,21.80
2023-06-17T18:23:18.967Z,21.70
2023-06-17T18:25:46.946Z,21.70
2023-06-17T18:28:15.134Z,21.60
2023-06-17T18:30:43.189Z,21.50
2023-06-17T18:33:11.255Z,21.40
2023-06-17T18:35:39.280Z,21.30
2023-06-17T18:38:09.355Z,21.20
2023-06-17T18:40:39.017Z,21.20
2023-06-17T18:43:08.466Z,21.00
2023-06-17T18:45:36.798Z,21.00
2023-06-17T18:48:05.287Z,20.90
2023-06-17T18:50:33.319Z,20.90
2023-06-17T18:53:01.377Z,20.80
2023-06-17T18:55:31.197Z,20.80
2023-06-17T18:58:00.974Z,20.70
2023-06-17T19:00:32.031Z,20.60
2023-06-17T19:03:00.213Z,20.50
2023-06-17T19:05:28.378Z,20.50
2023-06-17T19:07:56.472Z,20.40
2023-06-17T19:10:24.536Z,20.40
2023-06-17T19:12:52.967Z,20.30
2023-06-17T19:15:22.829Z,20.30
2023-06-17T19:17:50.864Z,20.20
2023-06-17T19:20:19.260Z,20.10
2023-06-17T19:22:47.367Z,20.10
2023-06-17T19:25:16.064Z,20.00
2023-06-17T19:27:44.046Z,20.10
2023-06-17T19:30:12.635Z,20.00
2023-06-17T19:32:41.997Z,19.90
2023-06-17T19:35:10.987Z,19.90
2023-06-17T19:37:39.774Z,19.80
2023-06-17T19:40:08.949Z,19.70
2023-06-17T19:42:36.977Z,19.70
2023-06-17T19:45:05.519Z,19.70
2023-06-17T19:47:33.943Z,19.60
2023-06-17T19:50:03.426Z,19.50
2023-06-17T19:52:31.472Z,19.50
2023-06-17T19:54:59.476Z,19.40
2023-06-17T19:57:27.547Z,19.30
2023-06-17T19:59:55.559Z,19.30
2023-06-17T20:02:23.687Z,19.30
2023-06-17T20:04:51.771Z,19.30
2023-06-17T20:07:21.109Z,19.30
2023-06-17T20:09:49.136Z,19.30
2023-06-17T20:12:17.179Z,19.20
2023-06-17T20:14:45.679Z,19.20
2023-06-17T20:17:13.716Z,19.10
2023-06-17T20:19:41.869Z,19.10
2023-06-17T20:22:09.892Z,19.00
2023-06-17T20:24:39.314Z,19.00
2023-06-17T20:27:08.182Z,19.00
2023-06-17T20:29:36.304Z,18.90
2023-06-17T20:32:04.603Z,18.80
2023-06-17T20:34:32.584Z,18.80
2023-06-17T20:37:00.691Z,18.80
2023-06-17T20:39:28.694Z,18.80
2023-06-17T20:41:58.065Z,18.80
2023-06-17T20:44:26.585Z,18.70
2023-06-17T20:47:00.610Z,18.70
2023-06-17T20:49:29.114Z,18.70
2023-06-17T20:51:57.853Z,18.60
2023-06-17T20:54:25.906Z,18.60
2023-06-17T20:56:54.039Z,18.50
2023-06-17T20:59:24.865Z,18.50
2023-06-17T21:01:53.587Z,18.50
2023-06-17T21:04:21.646Z,18.50
2023-06-17T21:06:49.725Z,18.40
2023-06-17T21:09:17.707Z,18.40
2023-06-17T21:11:45.723Z,18.40
2023-06-17T21:14:13.750Z,18.40
2023-06-17T21:16:43.139Z,18.40
2023-06-17T21:19:11.528Z,18.30
2023-06-17T21:21:39.492Z,18.30
2023-06-17T21:24:07.680Z,18.20
2023-06-17T21:26:35.789Z,18.20
2023-06-17T21:29:03.830Z,18.20
2023-06-17T21:31:31.855Z,18.10
2023-06-17T21:34:02.244Z,18.10
2023-06-17T21:36:30.238Z,18.10
2023-06-17T21:38:58.234Z,18.10
2023-06-17T21:41:27.365Z,18.10
2023-06-17T21:43:55.393Z,18.00
2023-06-17T21:46:26.664Z,18.00
2023-06-17T21:48:54.824Z,18.00
2023-06-17T21:51:24.418Z,17.90
2023-06-17T21:53:52.878Z,17.90
2023-06-17T21:56:20.980Z,17.90
2023-06-17T21:58:49.020Z,17.80
2023-06-17T22:01:18.144Z,17.80
2023-06-17T22:03:46.420Z,17.80
2023-06-17T22:06:14.821Z,17.80
2023-06-17T22:08:44.447Z,17.70
2023-06-17T22:11:12.901Z,17.70
2023-06-17T22:13:41.122Z,17.70
2023-06-17T22:16:09.378Z,17.70
2023-06-17T22:18:37.663Z,17.60
2023-06-17T22:21:05.656Z,17.60
2023-06-17T22:23:33.641Z,17.60
2023-06-17T22:26:03.016Z,17.60
2023-06-17T22:28:31.030Z,17.50
2023-06-17T22:30:59.062Z,17.50
2023-06-17T22:33:27.062Z,17.50
2023-06-17T22:35:55.082Z,17.50
2023-06-17T22:38:23.100Z,17.50
2023-06-17T22:40:51.168Z,17.40
2023-06-17T22:43:20.832Z,17.40
2023-06-17T22:45:49.836Z,17.40
2023-06-17T22:48:18.076Z,17.40
2023-06-17T22:50:46.729Z,17.40
2023-06-17T22:53:14.750Z,17.40
2023-06-17T22:55:42.891Z,17.30
2023-06-17T22:58:11.080Z,17.30
2023-06-17T23:00:40.821Z,17.20
2023-06-17T23:03:09.093Z,17.30
2023-06-17T23:05:37.219Z,17.20
2023-06-17T23:08:05.987Z,17.30
2023-06-17T23:10:34.034Z,17.30
2023-06-17T23:13:02.015Z,17.30
2023-06-17T23:15:30.063Z,17.30
2023-06-17T23:17:59.841Z,17.20
2023-06-17T23:20:27.987Z,17.20
2023-06-17T23:22:56.315Z,17.20
2023-06-17T23:25:27.898Z,17.20
2023-06-17T23:27:57.640Z,17.10
2023-06-17T23:30:26.531Z,17.00
2023-06-17T23:32:54.684Z,17.00
2023-06-17T23:35:24.193Z,16.90
2023-06-17T23:37:52.310Z,16.90
2023-06-17T23:40:21.199Z,16.90
2023-06-17T23:42:49.359Z,16.80
2023-06-17T23:45:17.798Z,16.80
2023-06-17T23:47:45.934Z,16.80
2023-06-17T23:50:13.998Z,16.80
2023-06-17T23:52:43.348Z,16.70
2023-06-17T23:55:11.556Z,16.70
2023-06-17T23:57:39.691Z,16.70
